sensor_id;sensor_type;location;lat;lon;timestamp;pressure;altitude;pressure_sealevel;temperature;humidity
15880;BME280;61999;51.514;14.614;2023-02-22T00:01:54;100162.91;;;3.83;62.32
15880;BME280;61999;51.514;14.614;2023-02-22T00:04:48;100160.47;;;3.80;62.03
15880;BME280;61999;51.514;14.614;2023-02-22T00:07:16;100154.63;;;3.74;61.70
15880;BME280;61999;51.514;14.614;2023-02-22T00:09:47;100149.63;;;3.70;61.70
15880;BME280;61999;51.514;14.614;2023-02-22T00:12:15;100154.16;;;3.66;61.67
15880;BME280;61999;51.514;14.614;2023-02-22T00:14:43;100156.75;;;3.66;61.79
15880;BME280;61999;51.514;14.614;2023-02-22T00:17:11;100161.19;;;3.64;61.91
15880;BME280;61999;51.514;14.614;2023-02-22T00:19:42;100159.66;;;3.60;61.84
15880;BME280;61999;51.514;14.614;2023-02-22T00:22:11;100157.13;;;3.59;62.10
15880;BME280;61999;51.514;14.614;2023-02-22T00:24:39;100156.63;;;3.50;61.99
15880;BME280;61999;51.514;14.614;2023-02-22T00:27:07;100151.50;;;3.49;62.09
15880;BME280;61999;51.514;14.614;2023-02-22T00:29:36;100153.91;;;3.54;62.37
15880;BME280;61999;51.514;14.614;2023-02-22T00:32:04;100156.38;;;3.57;62.24
15880;BME280;61999;51.514;14.614;2023-02-22T00:34:32;100152.88;;;3.56;62.37
15880;BME280;61999;51.514;14.614;2023-02-22T00:37:00;100153.75;;;3.57;62.35
15880;BME280;61999;51.514;14.614;2023-02-22T00:39:31;100147.69;;;3.56;62.03
15880;BME280;61999;51.514;14.614;2023-02-22T00:41:59;100153.03;;;3.53;61.95
15880;BME280;61999;51.514;14.614;2023-02-22T00:44:27;100148.91;;;3.49;61.85
15880;BME280;61999;51.514;14.614;2023-02-22T00:46:55;100150.00;;;3.45;61.79
15880;BME280;61999;51.514;14.614;2023-02-22T00:49:23;100142.22;;;3.43;61.88
15880;BME280;61999;51.514;14.614;2023-02-22T00:51:51;100144.22;;;3.19;62.18
15880;BME280;61999;51.514;14.614;2023-02-22T00:54:20;100151.31;;;3.16;62.35
15880;BME280;61999;51.514;14.614;2023-02-22T00:56:50;100140.38;;;3.28;62.28
15880;BME280;61999;51.514;14.614;2023-02-22T00:59:18;100142.00;;;3.31;62.31
15880;BME280;61999;51.514;14.614;2023-02-22T01:01:46;100141.13;;;3.30;62.15
15880;BME280;61999;51.514;14.614;2023-02-22T01:04:14;100141.06;;;3.32;62.30
15880;BME280;61999;51.514;14.614;2023-02-22T01:06:55;100145.63;;;3.26;62.23
15880;BME280;61999;51.514;14.614;2023-02-22T01:09:24;100143.69;;;2.94;62.23
15880;BME280;61999;51.514;14.614;2023-02-22T01:11:55;100136.63;;;2.96;63.22
15880;BME280;61999;51.514;14.614;2023-02-22T01:14:25;100134.16;;;3.12;62.74
15880;BME280;61999;51.514;14.614;2023-02-22T01:16:54;100134.94;;;2.95;62.90
15880;BME280;61999;51.514;14.614;2023-02-22T01:19:23;100135.38;;;2.85;63.24
15880;BME280;61999;51.514;14.614;2023-02-22T01:21:51;100131.25;;;2.99;63.16
15880;BME280;61999;51.514;14.614;2023-02-22T01:24:20;100127.31;;;3.09;62.73
15880;BME280;61999;51.514;14.614;2023-02-22T01:26:50;100132.53;;;3.09;62.50
15880;BME280;61999;51.514;14.614;2023-02-22T01:29:20;100128.84;;;3.13;62.39
15880;BME280;61999;51.514;14.614;2023-02-22T01:31:53;100127.03;;;3.15;62.18
15880;BME280;61999;51.514;14.614;2023-02-22T01:34:23;100124.44;;;3.15;62.23
15880;BME280;61999;51.514;14.614;2023-02-22T01:36:51;100126.25;;;3.13;62.29
15880;BME280;61999;51.514;14.614;2023-02-22T01:39:19;100121.81;;;3.15;62.52
15880;BME280;61999;51.514;14.614;2023-02-22T01:41:47;100127.03;;;3.15;62.32
15880;BME280;61999;51.514;14.614;2023-02-22T01:44:27;100128.75;;;3.16;62.45
15880;BME280;61999;51.514;14.614;2023-02-22T01:46:57;100125.22;;;3.17;62.76
15880;BME280;61999;51.514;14.614;2023-02-22T01:49:32;100128.59;;;3.19;62.91
15880;BME280;61999;51.514;14.614;2023-02-22T01:52:09;100119.69;;;3.23;62.84
15880;BME280;61999;51.514;14.614;2023-02-22T01:54:42;100119.59;;;3.26;63.04
15880;BME280;61999;51.514;14.614;2023-02-22T01:57:20;100124.66;;;3.29;63.03
15880;BME280;61999;51.514;14.614;2023-02-22T01:59:56;100125.34;;;3.33;63.13
15880;BME280;61999;51.514;14.614;2023-02-22T02:02:26;100122.72;;;3.33;63.02
15880;BME280;61999;51.514;14.614;2023-02-22T02:04:56;100118.28;;;3.35;63.21
15880;BME280;61999;51.514;14.614;2023-02-22T02:07:25;100124.19;;;3.39;63.10
15880;BME280;61999;51.514;14.614;2023-02-22T02:10:00;100124.34;;;3.36;63.05
15880;BME280;61999;51.514;14.614;2023-02-22T02:12:33;100115.47;;;3.40;62.88
15880;BME280;61999;51.514;14.614;2023-02-22T02:15:24;100113.78;;;3.39;62.66
15880;BME280;61999;51.514;14.614;2023-02-22T02:17:59;100120.84;;;3.37;62.41
15880;BME280;61999;51.514;14.614;2023-02-22T02:20:37;100112.41;;;3.32;62.46
15880;BME280;61999;51.514;14.614;2023-02-22T02:23:41;100114.16;;;3.31;62.43
15880;BME280;61999;51.514;14.614;2023-02-22T02:26:42;100111.63;;;3.29;62.69
15880;BME280;61999;51.514;14.614;2023-02-22T02:32:37;100110.84;;;3.27;62.92
15880;BME280;61999;51.514;14.614;2023-02-22T02:35:16;100117.75;;;3.28;62.88
15880;BME280;61999;51.514;14.614;2023-02-22T02:37:56;100118.59;;;3.29;62.81
15880;BME280;61999;51.514;14.614;2023-02-22T02:40:33;100120.38;;;3.28;62.78
15880;BME280;61999;51.514;14.614;2023-02-22T02:43:12;100121.16;;;3.31;63.01
15880;BME280;61999;51.514;14.614;2023-02-22T02:45:48;100122.19;;;3.26;63.06
15880;BME280;61999;51.514;14.614;2023-02-22T02:48:26;100117.59;;;3.32;63.12
15880;BME280;61999;51.514;14.614;2023-02-22T02:50:59;100116.63;;;3.34;63.25
15880;BME280;61999;51.514;14.614;2023-02-22T02:53:34;100119.13;;;3.36;63.04
15880;BME280;61999;51.514;14.614;2023-02-22T02:56:03;100116.47;;;3.37;63.20
15880;BME280;61999;51.514;14.614;2023-02-22T02:58:41;100117.16;;;3.41;63.08
15880;BME280;61999;51.514;14.614;2023-02-22T03:01:12;100124.97;;;3.41;63.00
15880;BME280;61999;51.514;14.614;2023-02-22T03:03:58;100112.78;;;3.41;63.01
15880;BME280;61999;51.514;14.614;2023-02-22T03:07:12;100119.06;;;3.37;62.88
15880;BME280;61999;51.514;14.614;2023-02-22T03:10:00;100121.59;;;3.39;62.72
15880;BME280;61999;51.514;14.614;2023-02-22T03:12:43;100119.91;;;3.38;62.53
15880;BME280;61999;51.514;14.614;2023-02-22T03:15:24;100111.41;;;3.34;62.34
15880;BME280;61999;51.514;14.614;2023-02-22T03:18:04;100118.28;;;3.35;62.56
15880;BME280;61999;51.514;14.614;2023-02-22T03:20:43;100118.38;;;3.34;62.59
15880;BME280;61999;51.514;14.614;2023-02-22T03:23:23;100110.63;;;3.32;62.73
15880;BME280;61999;51.514;14.614;2023-02-22T03:26:01;100112.25;;;3.35;62.72
15880;BME280;61999;51.514;14.614;2023-02-22T03:28:32;100117.47;;;3.35;62.74
15880;BME280;61999;51.514;14.614;2023-02-22T03:31:10;100111.41;;;3.34;62.87
15880;BME280;61999;51.514;14.614;2023-02-22T03:33:42;100114.06;;;3.33;62.85
15880;BME280;61999;51.514;14.614;2023-02-22T03:36:20;100118.53;;;3.31;62.48
15880;BME280;61999;51.514;14.614;2023-02-22T03:38:52;100120.28;;;3.30;62.76
15880;BME280;61999;51.514;14.614;2023-02-22T03:41:23;100119.44;;;3.29;62.82
15880;BME280;61999;51.514;14.614;2023-02-22T03:43:58;100118.44;;;3.32;62.94
15880;BME280;61999;51.514;14.614;2023-02-22T03:46:30;100117.47;;;3.35;62.73
15880;BME280;61999;51.514;14.614;2023-02-22T03:49:04;100122.53;;;3.38;62.91
15880;BME280;61999;51.514;14.614;2023-02-22T03:51:37;100117.31;;;3.38;63.27
15880;BME280;61999;51.514;14.614;2023-02-22T03:54:06;100120.69;;;3.40;63.19
15880;BME280;61999;51.514;14.614;2023-02-22T03:56:40;100111.00;;;3.42;63.03
15880;BME280;61999;51.514;14.614;2023-02-22T03:59:13;100108.50;;;3.40;62.70
15880;BME280;61999;51.514;14.614;2023-02-22T04:01:41;100110.28;;;3.40;62.65
15880;BME280;61999;51.514;14.614;2023-02-22T04:04:09;100111.09;;;3.40;62.60
15880;BME280;61999;51.514;14.614;2023-02-22T04:06:39;100111.09;;;3.40;62.75
15880;BME280;61999;51.514;14.614;2023-02-22T04:09:07;100118.00;;;3.41;62.72
15880;BME280;61999;51.514;14.614;2023-02-22T04:11:36;100115.34;;;3.43;62.71
15880;BME280;61999;51.514;14.614;2023-02-22T04:14:04;100111.00;;;3.42;62.73
15880;BME280;61999;51.514;14.614;2023-02-22T04:16:32;100110.97;;;3.43;62.59
15880;BME280;61999;51.514;14.614;2023-02-22T04:19:00;100111.00;;;3.42;62.51
15880;BME280;61999;51.514;14.614;2023-02-22T04:21:28;100105.97;;;3.39;62.40
15880;BME280;61999;51.514;14.614;2023-02-22T04:23:58;100105.34;;;3.34;62.18
15880;BME280;61999;51.514;14.614;2023-02-22T04:26:26;100107.19;;;3.32;62.27
15880;BME280;61999;51.514;14.614;2023-02-22T04:28:54;100107.19;;;3.32;62.52
15880;BME280;61999;51.514;14.614;2023-02-22T04:31:22;100103.81;;;3.29;62.64
15880;BME280;61999;51.514;14.614;2023-02-22T04:33:50;100095.94;;;3.31;62.79
15880;BME280;61999;51.514;14.614;2023-02-22T04:36:18;100100.41;;;3.27;62.58
15880;BME280;61999;51.514;14.614;2023-02-22T04:38:47;100096.06;;;3.28;62.58
15880;BME280;61999;51.514;14.614;2023-02-22T04:41:17;100103.03;;;3.27;62.47
15880;BME280;61999;51.514;14.614;2023-02-22T04:43:46;100098.75;;;3.26;62.39
15880;BME280;61999;51.514;14.614;2023-02-22T04:46:15;100094.38;;;3.27;62.44
15880;BME280;61999;51.514;14.614;2023-02-22T04:48:43;100090.13;;;3.24;62.61
15880;BME280;61999;51.514;14.614;2023-02-22T04:51:11;100088.31;;;3.26;62.72
15880;BME280;61999;51.514;14.614;2023-02-22T04:53:39;100093.53;;;3.26;62.63
15880;BME280;61999;51.514;14.614;2023-02-22T04:56:07;100093.53;;;3.26;62.69
15880;BME280;61999;51.514;14.614;2023-02-22T04:58:36;100092.72;;;3.24;62.42
15880;BME280;61999;51.514;14.614;2023-02-22T05:01:04;100089.25;;;3.25;62.85
15880;BME280;61999;51.514;14.614;2023-02-22T05:03:36;100085.84;;;3.23;62.51
15880;BME280;61999;51.514;14.614;2023-02-22T05:06:05;100085.06;;;3.21;62.43
15880;BME280;61999;51.514;14.614;2023-02-22T05:08:33;100097.34;;;3.19;62.68
15880;BME280;61999;51.514;14.614;2023-02-22T05:11:01;100088.75;;;3.17;62.17
15880;BME280;61999;51.514;14.614;2023-02-22T05:13:30;100092.28;;;3.16;62.31
15880;BME280;61999;51.514;14.614;2023-02-22T05:16:00;100084.38;;;3.18;62.48
15880;BME280;61999;51.514;14.614;2023-02-22T05:18:28;100085.19;;;3.18;62.63
15880;BME280;61999;51.514;14.614;2023-02-22T05:20:56;100083.28;;;3.22;62.65
15880;BME280;61999;51.514;14.614;2023-02-22T05:23:24;100090.13;;;3.24;62.73
15880;BME280;61999;51.514;14.614;2023-02-22T05:25:52;100084.91;;;3.24;62.52
15880;BME280;61999;51.514;14.614;2023-02-22T05:28:20;100087.50;;;3.24;62.46
15880;BME280;61999;51.514;14.614;2023-02-22T05:30:49;100085.78;;;3.25;62.32
15880;BME280;61999;51.514;14.614;2023-02-22T05:33:18;100093.66;;;3.23;62.19
15880;BME280;61999;51.514;14.614;2023-02-22T05:35:46;100092.13;;;3.19;62.21
15880;BME280;61999;51.514;14.614;2023-02-22T05:38:15;100090.41;;;3.18;62.10
15880;BME280;61999;51.514;14.614;2023-02-22T05:40:43;100092.28;;;3.16;62.26
15880;BME280;61999;51.514;14.614;2023-02-22T05:43:11;100094.88;;;3.16;62.22
15880;BME280;61999;51.514;14.614;2023-02-22T05:45:41;100094.94;;;3.15;62.29
15880;BME280;61999;51.514;14.614;2023-02-22T05:48:09;100095.91;;;3.12;62.22
15880;BME280;61999;51.514;14.614;2023-02-22T05:50:39;100095.09;;;3.12;62.21
15880;BME280;61999;51.514;14.614;2023-02-22T05:53:07;100092.53;;;3.10;62.02
15880;BME280;61999;51.514;14.614;2023-02-22T05:55:35;100094.41;;;3.08;62.25
15880;BME280;61999;51.514;14.614;2023-02-22T05:58:03;100101.56;;;3.03;62.13
15880;BME280;61999;51.514;14.614;2023-02-22T06:00:33;100101.72;;;3.00;62.09
15880;BME280;61999;51.514;14.614;2023-02-22T06:03:04;100096.50;;;3.00;61.93
15880;BME280;61999;51.514;14.614;2023-02-22T06:05:33;100115.63;;;2.99;61.89
15880;BME280;61999;51.514;14.614;2023-02-22T06:08:04;100107.91;;;2.97;61.95
15880;BME280;61999;51.514;14.614;2023-02-22T06:10:33;100113.13;;;2.97;62.12
15880;BME280;61999;51.514;14.614;2023-02-22T06:13:02;100115.63;;;2.99;62.33
15880;BME280;61999;51.514;14.614;2023-02-22T06:15:30;100115.03;;;2.75;62.82
15880;BME280;61999;51.514;14.614;2023-02-22T06:17:59;100109.19;;;2.89;62.62
15880;BME280;61999;51.514;14.614;2023-02-22T06:20:29;100109.88;;;2.92;62.41
15880;BME280;61999;51.514;14.614;2023-02-22T06:22:57;100112.56;;;2.91;62.35
15880;BME280;61999;51.514;14.614;2023-02-22T06:25:29;100108.06;;;2.56;63.35
15880;BME280;61999;51.514;14.614;2023-02-22T06:27:59;100107.22;;;2.75;63.05
15880;BME280;61999;51.514;14.614;2023-02-22T06:30:29;100109.47;;;2.82;62.90
15880;BME280;61999;51.514;14.614;2023-02-22T06:32:57;100113.75;;;2.83;62.52
15880;BME280;61999;51.514;14.614;2023-02-22T06:35:25;100109.34;;;2.85;62.66
15880;BME280;61999;51.514;14.614;2023-02-22T06:37:53;100109.19;;;2.89;62.62
15880;BME280;61999;51.514;14.614;2023-02-22T06:40:21;100109.03;;;2.92;62.57
15880;BME280;61999;51.514;14.614;2023-02-22T06:42:50;100116.66;;;2.96;62.65
15880;BME280;61999;51.514;14.614;2023-02-22T06:45:19;100113.97;;;2.98;62.57
15880;BME280;61999;51.514;14.614;2023-02-22T06:47:48;100115.63;;;2.99;62.75
15880;BME280;61999;51.514;14.614;2023-02-22T06:50:20;100115.50;;;3.02;62.93
15880;BME280;61999;51.514;14.614;2023-02-22T06:52:49;100113.66;;;3.04;62.92
15880;BME280;61999;51.514;14.614;2023-02-22T06:55:20;100117.06;;;3.06;62.75
15880;BME280;61999;51.514;14.614;2023-02-22T06:57:52;100119.66;;;3.06;62.57
15880;BME280;61999;51.514;14.614;2023-02-22T07:00:23;100132.47;;;3.11;62.71
15880;BME280;61999;51.514;14.614;2023-02-22T07:02:53;100130.63;;;3.13;62.63
15880;BME280;61999;51.514;14.614;2023-02-22T07:05:24;100134.94;;;3.14;62.57
15880;BME280;61999;51.514;14.614;2023-02-22T07:07:54;100140.06;;;3.15;62.61
15880;BME280;61999;51.514;14.614;2023-02-22T07:10:26;100134.78;;;3.17;62.62
15880;BME280;61999;51.514;14.614;2023-02-22T07:12:56;100143.28;;;3.20;62.57
15880;BME280;61999;51.514;14.614;2023-02-22T07:15:27;100139.28;;;3.13;62.77
15880;BME280;61999;51.514;14.614;2023-02-22T07:17:56;100145.13;;;3.18;62.81
15880;BME280;61999;51.514;14.614;2023-02-22T07:20:27;100137.81;;;3.26;62.80
15880;BME280;61999;51.514;14.614;2023-02-22T07:22:56;100136.00;;;3.28;63.04
15880;BME280;61999;51.514;14.614;2023-02-22T07:25:24;100135.69;;;3.35;62.47
15880;BME280;61999;51.514;14.614;2023-02-22T07:27:52;100150.41;;;3.36;62.38
15880;BME280;61999;51.514;14.614;2023-02-22T07:30:25;100146.75;;;3.40;62.19
15880;BME280;61999;51.514;14.614;2023-02-22T07:32:57;100150.09;;;3.42;62.49
15880;BME280;61999;51.514;14.614;2023-02-22T07:35:28;100147.38;;;3.45;62.48
15880;BME280;61999;51.514;14.614;2023-02-22T07:37:57;100144.69;;;3.46;62.08
15880;BME280;61999;51.514;14.614;2023-02-22T07:40:26;100148.13;;;3.47;61.94
15880;BME280;61999;51.514;14.614;2023-02-22T07:42:57;100153.19;;;3.50;62.09
15880;BME280;61999;51.514;14.614;2023-02-22T07:45:29;100149.59;;;3.52;62.06
15880;BME280;61999;51.514;14.614;2023-02-22T07:47:59;100154.75;;;3.54;62.13
15880;BME280;61999;51.514;14.614;2023-02-22T07:50:29;100150.28;;;3.56;62.02
15880;BME280;61999;51.514;14.614;2023-02-22T07:53:01;100150.22;;;3.58;61.72
15880;BME280;61999;51.514;14.614;2023-02-22T07:55:31;100144.03;;;3.60;61.52
15880;BME280;61999;51.514;14.614;2023-02-22T07:58:03;100149.34;;;3.40;61.21
15880;BME280;61999;51.514;14.614;2023-02-22T08:00:35;100148.69;;;3.54;61.57
15880;BME280;61999;51.514;14.614;2023-02-22T08:03:08;100152.69;;;3.61;61.34
15880;BME280;61999;51.514;14.614;2023-02-22T08:05:39;100152.63;;;3.62;61.25
15880;BME280;61999;51.514;14.614;2023-02-22T08:08:08;100155.22;;;3.62;61.18
15880;BME280;61999;51.514;14.614;2023-02-22T08:10:36;100150.75;;;3.64;61.18
15880;BME280;61999;51.514;14.614;2023-02-22T08:13:04;100151.69;;;3.63;60.97
15880;BME280;61999;51.514;14.614;2023-02-22T08:15:36;100150.75;;;3.64;61.12
15880;BME280;61999;51.514;14.614;2023-02-22T08:18:07;100150.75;;;3.64;60.87
15880;BME280;61999;51.514;14.614;2023-02-22T08:20:36;100155.06;;;3.65;60.88
15880;BME280;61999;51.514;14.614;2023-02-22T08:23:06;100148.09;;;3.66;60.72
15880;BME280;61999;51.514;14.614;2023-02-22T08:25:35;100145.97;;;3.74;60.95
15880;BME280;61999;51.514;14.614;2023-02-22T08:28:07;100145.13;;;3.73;60.81
15880;BME280;61999;51.514;14.614;2023-02-22T08:30:38;100150.19;;;3.77;60.96
15880;BME280;61999;51.514;14.614;2023-02-22T08:33:08;100144.81;;;3.80;60.94
15880;BME280;61999;51.514;14.614;2023-02-22T08:35:40;100144.31;;;3.54;60.49
15880;BME280;61999;51.514;14.614;2023-02-22T08:38:17;100150.03;;;3.80;61.10
15880;BME280;61999;51.514;14.614;2023-02-22T08:40:47;100145.50;;;3.83;61.14
15880;BME280;61999;51.514;14.614;2023-02-22T08:43:16;100144.19;;;3.92;60.86
15880;BME280;61999;51.514;14.614;2023-02-22T08:45:46;100149.94;;;3.98;60.73
15880;BME280;61999;51.514;14.614;2023-02-22T08:48:15;100146.00;;;4.07;60.96
15880;BME280;61999;51.514;14.614;2023-02-22T08:50:44;100146.63;;;4.12;60.53
15880;BME280;61999;51.514;14.614;2023-02-22T08:53:14;100144.03;;;4.12;59.91
15880;BME280;61999;51.514;14.614;2023-02-22T08:55:43;100143.09;;;4.13;59.90
15880;BME280;61999;51.514;14.614;2023-02-22T08:58:12;100145.63;;;4.15;59.80
15880;BME280;61999;51.514;14.614;2023-02-22T09:00:41;100140.03;;;4.23;59.96
15880;BME280;61999;51.514;14.614;2023-02-22T09:03:13;100145.78;;;4.29;60.07
15880;BME280;61999;51.514;14.614;2023-02-22T09:05:42;100151.66;;;4.33;60.03
15880;BME280;61999;51.514;14.614;2023-02-22T09:08:10;100154.81;;;4.39;59.92
15880;BME280;61999;51.514;14.614;2023-02-22T09:10:39;100157.34;;;4.41;59.63
15880;BME280;61999;51.514;14.614;2023-02-22T09:13:07;100152.06;;;4.42;59.54
15880;BME280;61999;51.514;14.614;2023-02-22T09:15:36;100152.44;;;4.52;60.33
15880;BME280;61999;51.514;14.614;2023-02-22T09:18:08;100151.03;;;4.62;59.62
15880;BME280;61999;51.514;14.614;2023-02-22T09:20:38;100144.53;;;4.70;59.66
15880;BME280;61999;51.514;14.614;2023-02-22T09:23:06;100147.94;;;4.72;59.57
15880;BME280;61999;51.514;14.614;2023-02-22T09:25:36;100142.38;;;4.78;59.84
15880;BME280;61999;51.514;14.614;2023-02-22T09:28:06;100147.66;;;4.76;59.56
15880;BME280;61999;51.514;14.614;2023-02-22T09:30:36;100149.19;;;4.80;59.13
15880;BME280;61999;51.514;14.614;2023-02-22T09:33:07;100152.06;;;4.76;58.81
15880;BME280;61999;51.514;14.614;2023-02-22T09:35:39;100153.91;;;4.74;58.39
15880;BME280;61999;51.514;14.614;2023-02-22T09:38:09;100147.00;;;4.73;58.17
15880;BME280;61999;51.514;14.614;2023-02-22T09:40:42;100150.44;;;4.40;57.21
15880;BME280;61999;51.514;14.614;2023-02-22T09:43:26;100146.88;;;4.25;56.74
15880;BME280;61999;51.514;14.614;2023-02-22T09:46:11;100143.06;;;4.48;57.94
15880;BME280;61999;51.514;14.614;2023-02-22T09:48:57;100148.28;;;4.48;57.67
15880;BME280;61999;51.514;14.614;2023-02-22T09:51:37;100142.09;;;4.67;57.79
15880;BME280;61999;51.514;14.614;2023-02-22T09:54:18;100142.44;;;4.76;57.49
15880;BME280;61999;51.514;14.614;2023-02-22T09:56:55;100138.25;;;4.74;56.56
15880;BME280;61999;51.514;14.614;2023-02-22T09:59:29;100132.59;;;4.66;55.71
15880;BME280;61999;51.514;14.614;2023-02-22T10:02:08;100132.16;;;4.73;55.93
15880;BME280;61999;51.514;14.614;2023-02-22T10:04:46;100131.16;;;4.76;55.84
15880;BME280;61999;51.514;14.614;2023-02-22T10:07:29;100132.00;;;4.76;55.90
15880;BME280;61999;51.514;14.614;2023-02-22T10:09:59;100128.53;;;4.76;55.24
15880;BME280;61999;51.514;14.614;2023-02-22T10:12:43;100124.22;;;4.59;54.33
15880;BME280;61999;51.514;14.614;2023-02-22T10:15:42;100125.09;;;4.59;54.13
15880;BME280;61999;51.514;14.614;2023-02-22T10:18:48;100124.94;;;4.62;54.06
15880;BME280;61999;51.514;14.614;2023-02-22T10:21:37;100121.16;;;4.51;54.19
15880;BME280;61999;51.514;14.614;2023-02-22T10:24:26;100123.38;;;4.58;54.31
15880;BME280;61999;51.514;14.614;2023-02-22T10:26:58;100120.28;;;4.68;54.57
15880;BME280;61999;51.514;14.614;2023-02-22T10:29:35;100118.94;;;4.76;54.98
15880;BME280;61999;51.514;14.614;2023-02-22T10:32:13;100120.53;;;4.79;54.57
15880;BME280;61999;51.514;14.614;2023-02-22T10:34:47;100121.91;;;4.86;54.33
15880;BME280;61999;51.514;14.614;2023-02-22T10:37:24;100116.00;;;4.98;54.37
15880;BME280;61999;51.514;14.614;2023-02-22T10:40:00;100110.44;;;5.04;54.65
15880;BME280;61999;51.514;14.614;2023-02-22T10:42:31;100117.44;;;5.04;54.28
15880;BME280;61999;51.514;14.614;2023-02-22T10:44:59;100115.84;;;5.01;54.30
15880;BME280;61999;51.514;14.614;2023-02-22T10:47:28;100112.97;;;5.06;54.11
15880;BME280;61999;51.514;14.614;2023-02-22T10:49:58;100102.34;;;4.93;52.73
15880;BME280;61999;51.514;14.614;2023-02-22T10:52:31;100107.66;;;5.07;53.34
15880;BME280;61999;51.514;14.614;2023-02-22T10:55:03;100111.69;;;5.13;52.96
15880;BME280;61999;51.514;14.614;2023-02-22T10:57:45;100108.06;;;5.16;52.40
15880;BME280;61999;51.514;14.614;2023-02-22T11:00:18;100103.78;;;5.15;52.89
15880;BME280;61999;51.514;14.614;2023-02-22T11:02:53;100102.31;;;5.25;52.86
15880;BME280;61999;51.514;14.614;2023-02-22T11:05:28;100108.06;;;5.31;53.25
15880;BME280;61999;51.514;14.614;2023-02-22T11:08:25;100101.66;;;5.37;53.38
15880;BME280;61999;51.514;14.614;2023-02-22T11:10:59;100103.06;;;5.43;53.19
15880;BME280;61999;51.514;14.614;2023-02-22T11:13:32;100099.94;;;5.36;52.33
15880;BME280;61999;51.514;14.614;2023-02-22T11:16:16;100095.06;;;5.46;52.43
15880;BME280;61999;51.514;14.614;2023-02-22T11:18:46;100100.53;;;5.41;51.69
15880;BME280;61999;51.514;14.614;2023-02-22T11:21:21;100103.06;;;5.43;51.35
15880;BME280;61999;51.514;14.614;2023-02-22T11:24:01;100093.03;;;5.35;50.89
15880;BME280;61999;51.514;14.614;2023-02-22T11:26:39;100095.41;;;5.40;50.33
15880;BME280;61999;51.514;14.614;2023-02-22T11:29:14;100087.28;;;5.44;50.79
15880;BME280;61999;51.514;14.614;2023-02-22T11:31:46;100096.97;;;5.42;50.30
15880;BME280;61999;51.514;14.614;2023-02-22T11:34:34;100085.44;;;5.46;50.13
15880;BME280;61999;51.514;14.614;2023-02-22T11:37:31;100087.50;;;5.55;50.92
15880;BME280;61999;51.514;14.614;2023-02-22T11:40:15;100085.53;;;5.59;51.34
15880;BME280;61999;51.514;14.614;2023-02-22T11:43:06;100082.69;;;5.64;51.29
15880;BME280;61999;51.514;14.614;2023-02-22T11:45:38;100083.03;;;5.58;51.08
15880;BME280;61999;51.514;14.614;2023-02-22T11:48:18;100075.59;;;5.66;51.40
15880;BME280;61999;51.514;14.614;2023-02-22T11:51:03;100077.97;;;5.54;51.13
15880;BME280;61999;51.514;14.614;2023-02-22T11:56:39;100074.59;;;5.68;51.50
15880;BME280;61999;51.514;14.614;2023-02-22T11:59:25;100070.78;;;5.74;51.47
15880;BME280;61999;51.514;14.614;2023-02-22T12:02:17;100063.59;;;5.62;51.18
15880;BME280;61999;51.514;14.614;2023-02-22T12:05:14;100076.56;;;5.79;51.58
15880;BME280;61999;51.514;14.614;2023-02-22T12:08:00;100072.47;;;5.89;51.76
15880;BME280;61999;51.514;14.614;2023-02-22T12:10:59;100066.09;;;5.79;51.73
15880;BME280;61999;51.514;14.614;2023-02-22T12:13:45;100063.22;;;5.84;51.42
15880;BME280;61999;51.514;14.614;2023-02-22T12:16:27;100060.53;;;5.85;50.87
15880;BME280;61999;51.514;14.614;2023-02-22T12:19:12;100061.38;;;5.86;51.15
15880;BME280;61999;51.514;14.614;2023-02-22T12:21:50;100058.28;;;5.93;51.47
15880;BME280;61999;51.514;14.614;2023-02-22T12:24:23;100056.59;;;5.92;51.38
15880;BME280;61999;51.514;14.614;2023-02-22T12:27:00;100062.97;;;6.03;51.39
15880;BME280;61999;51.514;14.614;2023-02-22T12:29:38;100061.47;;;5.98;50.39
15880;BME280;61999;51.514;14.614;2023-02-22T12:32:15;100057.94;;;5.99;50.04
15880;BME280;61999;51.514;14.614;2023-02-22T12:34:47;100058.28;;;5.93;50.20
15880;BME280;61999;51.514;14.614;2023-02-22T12:37:25;100050.53;;;5.92;49.92
15880;BME280;61999;51.514;14.614;2023-02-22T12:40:02;100050.97;;;5.84;49.46
15880;BME280;61999;51.514;14.614;2023-02-22T12:42:47;100055.19;;;5.87;49.75
15880;BME280;61999;51.514;14.614;2023-02-22T12:45:28;100059.13;;;5.94;49.50
15880;BME280;61999;51.514;14.614;2023-02-22T12:48:24;100056.41;;;5.95;49.95
15880;BME280;61999;51.514;14.614;2023-02-22T12:50:58;100047.47;;;5.99;49.48
15880;BME280;61999;51.514;14.614;2023-02-22T12:53:34;100051.19;;;5.95;49.04
15880;BME280;61999;51.514;14.614;2023-02-22T12:56:16;100050.72;;;5.89;49.16
15880;BME280;61999;51.514;14.614;2023-02-22T12:58:55;100050.06;;;5.85;49.01
15880;BME280;61999;51.514;14.614;2023-02-22T13:01:35;100049.88;;;5.88;48.92
15880;BME280;61999;51.514;14.614;2023-02-22T13:04:06;100047.06;;;5.91;49.56
15880;BME280;61999;51.514;14.614;2023-02-22T13:07:00;100046.31;;;5.89;49.83
15880;BME280;61999;51.514;14.614;2023-02-22T13:09:54;100044.09;;;5.97;49.42
15880;BME280;61999;51.514;14.614;2023-02-22T13:12:37;100046.31;;;5.89;49.66
15880;BME280;61999;51.514;14.614;2023-02-22T13:15:17;100039.59;;;5.99;49.80
15880;BME280;61999;51.514;14.614;2023-02-22T13:17:58;100037.16;;;5.96;49.40
15880;BME280;61999;51.514;14.614;2023-02-22T13:20:37;100040.16;;;6.05;48.79
15880;BME280;61999;51.514;14.614;2023-02-22T13:23:15;100031.00;;;6.12;49.12
15880;BME280;61999;51.514;14.614;2023-02-22T13:25:52;100034.72;;;6.08;48.25
15880;BME280;61999;51.514;14.614;2023-02-22T13:28:32;100033.25;;;6.04;48.80
15880;BME280;61999;51.514;14.614;2023-02-22T13:31:29;100030.06;;;5.98;47.82